Aviation Digital Data Service (ADDS)

Output produced by TAFs form (1925 UTC 23 June 2018)
found at http://aviationweather.gov/adds/tafs/
 
ELLX 231920Z 34005KT 9999 FEW046 15/09 Q1025 NOSIG
TAF ELLX 231700Z 2318/2424 36008KT 9999 SCT030 BKN040 
     TEMPO 2321/2406 VRB02KT